Terminal Aerodrome Forecast
Issued by NWS

Home | Current Version | Previous Version | Text Only | Print | Product List | Glossary On
Versions: 1 2 3 4 5 6 7 8 9 10 11 12 13 14 15 16 17 18 19 20
000
FTUS46 KPDT 241129
TAFRDM
TAF
KRDM 241129Z 2412/2512 29010KT P6SM SKC
     FM241700 33016G25KT P6SM SKC
     FM250300 35011G17KT P6SM SKC
     FM250500 VRB03KT P6SM SKC=

USA.gov is the U.S. government's official web portal to all federal, state and local government web resources and services.